sensor_id;sensor_type;location;lat;lon;timestamp;pressure;altitude;pressure_sealevel;temperature;humidity
11041;BME280;5573;49.592;8.662;2023-03-09T00:02:09;97377.19;;;10.01;100.00
11041;BME280;5573;49.592;8.662;2023-03-09T00:04:40;97377.19;;;10.01;100.00
11041;BME280;5573;49.592;8.662;2023-03-09T00:07:09;97377.94;;;10.01;100.00
11041;BME280;5573;49.592;8.662;2023-03-09T00:09:37;97376.41;;;9.87;100.00
11041;BME280;5573;49.592;8.662;2023-03-09T00:12:05;97381.69;;;9.94;100.00
11041;BME280;5573;49.592;8.662;2023-03-09T00:14:33;97377.50;;;9.90;100.00
11041;BME280;5573;49.592;8.662;2023-03-09T00:17:01;97371.47;;;9.95;100.00
11041;BME280;5573;49.592;8.662;2023-03-09T00:19:28;97370.81;;;9.91;100.00
11041;BME280;5573;49.592;8.662;2023-03-09T00:21:57;97359.38;;;9.92;100.00
11041;BME280;5573;49.592;8.662;2023-03-09T00:24:27;97354.66;;;9.93;100.00
11041;BME280;5573;49.592;8.662;2023-03-09T00:26:56;97351.34;;;9.85;100.00
11041;BME280;5573;49.592;8.662;2023-03-09T00:29:26;97346.19;;;9.87;100.00
11041;BME280;5573;49.592;8.662;2023-03-09T00:31:55;97331.69;;;9.74;100.00
11041;BME280;5573;49.592;8.662;2023-03-09T00:34:23;97346.38;;;9.80;100.00
11041;BME280;5573;49.592;8.662;2023-03-09T00:36:51;97338.38;;;9.86;100.00
11041;BME280;5573;49.592;8.662;2023-03-09T00:39:19;97346.34;;;9.67;100.00
11041;BME280;5573;49.592;8.662;2023-03-09T00:41:48;97339.34;;;9.66;100.00
11041;BME280;5573;49.592;8.662;2023-03-09T00:44:16;97356.78;;;9.60;100.00
11041;BME280;5573;49.592;8.662;2023-03-09T00:46:43;97349.31;;;9.60;100.00
11041;BME280;5573;49.592;8.662;2023-03-09T00:49:14;97354.13;;;9.56;100.00
11041;BME280;5573;49.592;8.662;2023-03-09T00:51:42;97366.56;;;9.61;100.00
11041;BME280;5573;49.592;8.662;2023-03-09T00:54:11;97368.09;;;9.62;100.00
11041;BME280;5573;49.592;8.662;2023-03-09T00:56:40;97350.09;;;9.61;100.00
11041;BME280;5573;49.592;8.662;2023-03-09T00:59:09;97346.25;;;9.58;100.00
11041;BME280;5573;49.592;8.662;2023-03-09T01:01:38;97374.69;;;9.64;100.00
11041;BME280;5573;49.592;8.662;2023-03-09T01:04:06;97366.59;;;9.73;100.00
11041;BME280;5573;49.592;8.662;2023-03-09T01:06:35;97382.38;;;9.69;100.00
11041;BME280;5573;49.592;8.662;2023-03-09T01:09:03;97374.78;;;9.61;100.00
11041;BME280;5573;49.592;8.662;2023-03-09T01:11:30;97377.94;;;9.59;100.00
11041;BME280;5573;49.592;8.662;2023-03-09T01:13:58;97380.69;;;9.59;100.00
11041;BME280;5573;49.592;8.662;2023-03-09T01:16:27;97374.78;;;9.61;100.00
11041;BME280;5573;49.592;8.662;2023-03-09T01:18:55;97381.81;;;9.62;100.00
11041;BME280;5573;49.592;8.662;2023-03-09T01:21:23;97383.91;;;9.57;100.00
11041;BME280;5573;49.592;8.662;2023-03-09T01:23:51;97386.97;;;9.60;100.00
11041;BME280;5573;49.592;8.662;2023-03-09T01:26:18;97389.59;;;9.63;100.00
11041;BME280;5573;49.592;8.662;2023-03-09T01:28:47;97391.25;;;9.61;100.00
11041;BME280;5573;49.592;8.662;2023-03-09T01:31:15;97385.84;;;9.57;100.00
11041;BME280;5573;49.592;8.662;2023-03-09T01:33:47;97384.66;;;9.58;100.00
11041;BME280;5573;49.592;8.662;2023-03-09T01:36:17;97366.94;;;9.46;100.00
11041;BME280;5573;49.592;8.662;2023-03-09T01:38:45;97377.19;;;9.59;100.00
11041;BME280;5573;49.592;8.662;2023-03-09T01:41:14;97382.97;;;9.48;100.00
11041;BME280;5573;49.592;8.662;2023-03-09T01:43:43;97377.78;;;9.37;100.00
11041;BME280;5573;49.592;8.662;2023-03-09T01:46:34;97378.66;;;9.34;100.00
11041;BME280;5573;49.592;8.662;2023-03-09T01:49:08;97382.84;;;9.39;100.00
11041;BME280;5573;49.592;8.662;2023-03-09T01:51:40;97387.78;;;9.44;100.00
11041;BME280;5573;49.592;8.662;2023-03-09T01:54:34;97384.28;;;9.43;100.00
11041;BME280;5573;49.592;8.662;2023-03-09T01:57:06;97390.47;;;9.31;100.00
11041;BME280;5573;49.592;8.662;2023-03-09T01:59:37;97390.41;;;9.34;100.00
11041;BME280;5573;49.592;8.662;2023-03-09T02:02:06;97384.13;;;9.34;100.00
11041;BME280;5573;49.592;8.662;2023-03-09T02:04:39;97377.44;;;9.35;100.00
11041;BME280;5573;49.592;8.662;2023-03-09T02:07:10;97395.19;;;9.30;100.00
11041;BME280;5573;49.592;8.662;2023-03-09T02:09:43;97392.03;;;9.32;100.00
11041;BME280;5573;49.592;8.662;2023-03-09T02:12:14;97397.13;;;9.17;100.00
11041;BME280;5573;49.592;8.662;2023-03-09T02:14:43;97410.31;;;9.22;100.00
11041;BME280;5573;49.592;8.662;2023-03-09T02:17:12;97404.31;;;9.11;100.00
11041;BME280;5573;49.592;8.662;2023-03-09T02:19:53;97403.09;;;9.12;100.00
11041;BME280;5573;49.592;8.662;2023-03-09T02:22:23;97407.41;;;9.13;100.00
11041;BME280;5573;49.592;8.662;2023-03-09T02:24:59;97409.28;;;9.16;100.00
11041;BME280;5573;49.592;8.662;2023-03-09T02:27:31;97408.16;;;9.13;100.00
11041;BME280;5573;49.592;8.662;2023-03-09T02:30:01;97422.38;;;9.25;100.00
11041;BME280;5573;49.592;8.662;2023-03-09T02:32:33;97425.38;;;9.14;100.00
11041;BME280;5573;49.592;8.662;2023-03-09T02:35:02;97427.28;;;9.17;100.00
11041;BME280;5573;49.592;8.662;2023-03-09T02:37:32;97423.53;;;9.11;100.00
11041;BME280;5573;49.592;8.662;2023-03-09T02:40:11;97432.44;;;9.15;100.00
11041;BME280;5573;49.592;8.662;2023-03-09T02:42:44;97450.59;;;9.09;100.00
11041;BME280;5573;49.592;8.662;2023-03-09T02:45:15;97450.69;;;9.22;100.00
11041;BME280;5573;49.592;8.662;2023-03-09T02:47:45;97468.66;;;9.23;100.00
11041;BME280;5573;49.592;8.662;2023-03-09T02:50:14;97489.78;;;9.26;100.00
11041;BME280;5573;49.592;8.662;2023-03-09T02:52:42;97498.84;;;9.23;100.00
11041;BME280;5573;49.592;8.662;2023-03-09T02:55:11;97501.59;;;9.23;100.00
11041;BME280;5573;49.592;8.662;2023-03-09T02:57:40;97514.34;;;9.29;100.00
11041;BME280;5573;49.592;8.662;2023-03-09T03:00:15;97522.31;;;9.40;100.00
11041;BME280;5573;49.592;8.662;2023-03-09T03:02:43;97525.94;;;9.37;100.00
11041;BME280;5573;49.592;8.662;2023-03-09T03:05:11;97528.00;;;9.33;100.00
11041;BME280;5573;49.592;8.662;2023-03-09T03:07:40;97537.25;;;9.39;100.00
11041;BME280;5573;49.592;8.662;2023-03-09T03:10:10;97527.56;;;9.34;100.00
11041;BME280;5573;49.592;8.662;2023-03-09T03:12:38;97525.78;;;9.28;100.00
11041;BME280;5573;49.592;8.662;2023-03-09T03:15:07;97528.34;;;9.35;100.00
11041;BME280;5573;49.592;8.662;2023-03-09T03:17:36;97547.03;;;9.24;100.00
11041;BME280;5573;49.592;8.662;2023-03-09T03:20:06;97562.19;;;9.28;100.00
11041;BME280;5573;49.592;8.662;2023-03-09T03:22:40;97548.06;;;9.30;100.00
11041;BME280;5573;49.592;8.662;2023-03-09T03:25:09;97555.84;;;9.31;100.00
11041;BME280;5573;49.592;8.662;2023-03-09T03:27:41;97572.16;;;9.22;100.00
11041;BME280;5573;49.592;8.662;2023-03-09T03:30:11;97581.06;;;9.26;100.00
11041;BME280;5573;49.592;8.662;2023-03-09T03:32:42;97592.63;;;9.18;100.00
11041;BME280;5573;49.592;8.662;2023-03-09T03:35:12;97597.41;;;9.13;100.00
11041;BME280;5573;49.592;8.662;2023-03-09T03:37:43;97601.09;;;9.07;100.00
11041;BME280;5573;49.592;8.662;2023-03-09T03:40:12;97602.56;;;9.11;100.00
11041;BME280;5573;49.592;8.662;2023-03-09T03:42:44;97611.56;;;9.12;100.00
11041;BME280;5573;49.592;8.662;2023-03-09T03:45:13;97616.69;;;9.10;100.00
11041;BME280;5573;49.592;8.662;2023-03-09T03:47:43;97628.75;;;8.96;100.00
11041;BME280;5573;49.592;8.662;2023-03-09T03:50:11;97629.28;;;9.07;100.00
11041;BME280;5573;49.592;8.662;2023-03-09T03:52:52;97641.19;;;9.01;100.00
11041;BME280;5573;49.592;8.662;2023-03-09T03:55:20;97655.59;;;9.05;100.00
11041;BME280;5573;49.592;8.662;2023-03-09T03:57:48;97652.00;;;9.08;100.00
11041;BME280;5573;49.592;8.662;2023-03-09T04:00:17;97670.34;;;9.11;100.00
11041;BME280;5573;49.592;8.662;2023-03-09T04:02:49;97670.00;;;9.09;100.00
11041;BME280;5573;49.592;8.662;2023-03-09T04:05:22;97688.75;;;9.10;100.00
11041;BME280;5573;49.592;8.662;2023-03-09T04:07:49;97695.75;;;8.95;100.00
11041;BME280;5573;49.592;8.662;2023-03-09T04:10:18;97701.41;;;9.04;100.00
11041;BME280;5573;49.592;8.662;2023-03-09T04:12:46;97700.59;;;9.07;100.00
11041;BME280;5573;49.592;8.662;2023-03-09T04:15:15;97709.94;;;9.10;100.00
11041;BME280;5573;49.592;8.662;2023-03-09T04:17:43;97720.28;;;9.02;100.00
11041;BME280;5573;49.592;8.662;2023-03-09T04:20:17;97729.56;;;9.08;100.00
11041;BME280;5573;49.592;8.662;2023-03-09T04:22:47;97724.06;;;9.08;100.00
11041;BME280;5573;49.592;8.662;2023-03-09T04:25:16;97739.00;;;9.07;100.00
11041;BME280;5573;49.592;8.662;2023-03-09T04:27:44;97734.06;;;8.99;100.00
11041;BME280;5573;49.592;8.662;2023-03-09T04:30:23;97754.22;;;9.08;100.00
11041;BME280;5573;49.592;8.662;2023-03-09T04:32:55;97765.72;;;9.03;100.00
11041;BME280;5573;49.592;8.662;2023-03-09T04:35:24;97756.34;;;9.01;100.00
11041;BME280;5573;49.592;8.662;2023-03-09T04:37:54;97760.72;;;8.98;100.00
11041;BME280;5573;49.592;8.662;2023-03-09T04:40:22;97764.59;;;9.01;100.00
11041;BME280;5573;49.592;8.662;2023-03-09T04:42:54;97766.97;;;8.99;100.00
11041;BME280;5573;49.592;8.662;2023-03-09T04:45:21;97773.59;;;9.01;100.00
11041;BME280;5573;49.592;8.662;2023-03-09T04:47:51;97783.44;;;8.99;100.00
11041;BME280;5573;49.592;8.662;2023-03-09T04:50:20;97766.31;;;8.91;100.00
11041;BME280;5573;49.592;8.662;2023-03-09T04:52:56;97799.13;;;9.18;100.00
11041;BME280;5573;49.592;8.662;2023-03-09T04:55:24;97793.91;;;9.04;100.00
11041;BME280;5573;49.592;8.662;2023-03-09T04:57:55;97810.00;;;9.02;100.00
11041;BME280;5573;49.592;8.662;2023-03-09T05:00:23;97810.59;;;9.13;100.00
11041;BME280;5573;49.592;8.662;2023-03-09T05:02:52;97814.88;;;9.14;100.00
11041;BME280;5573;49.592;8.662;2023-03-09T05:05:20;97821.56;;;9.13;100.00
11041;BME280;5573;49.592;8.662;2023-03-09T05:07:52;97824.44;;;9.06;100.00
11041;BME280;5573;49.592;8.662;2023-03-09T05:10:21;97828.19;;;9.15;100.00
11041;BME280;5573;49.592;8.662;2023-03-09T05:12:53;97825.84;;;9.14;100.00
11041;BME280;5573;49.592;8.662;2023-03-09T05:15:25;97829.56;;;9.04;100.00
11041;BME280;5573;49.592;8.662;2023-03-09T05:17:53;97836.97;;;9.07;100.00
11041;BME280;5573;49.592;8.662;2023-03-09T05:20:22;97851.03;;;9.09;100.00
11041;BME280;5573;49.592;8.662;2023-03-09T05:22:58;97816.72;;;8.77;100.00
11041;BME280;5573;49.592;8.662;2023-03-09T05:25:27;97875.22;;;9.14;100.00
11041;BME280;5573;49.592;8.662;2023-03-09T05:27:55;97877.56;;;9.15;100.00
11041;BME280;5573;49.592;8.662;2023-03-09T05:30:28;97892.44;;;9.14;100.00
11041;BME280;5573;49.592;8.662;2023-03-09T05:33:00;97895.44;;;9.24;100.00
11041;BME280;5573;49.592;8.662;2023-03-09T05:35:30;97887.44;;;9.09;100.00
11041;BME280;5573;49.592;8.662;2023-03-09T05:38:00;97878.50;;;9.05;100.00
11041;BME280;5573;49.592;8.662;2023-03-09T05:40:29;97883.31;;;9.21;100.00
11041;BME280;5573;49.592;8.662;2023-03-09T05:43:01;97888.22;;;9.10;100.00
11041;BME280;5573;49.592;8.662;2023-03-09T05:45:30;97888.13;;;9.17;100.00
11041;BME280;5573;49.592;8.662;2023-03-09T05:47:58;97885.78;;;9.15;100.00
11041;BME280;5573;49.592;8.662;2023-03-09T05:50:28;97884.16;;;9.18;100.00
11041;BME280;5573;49.592;8.662;2023-03-09T05:52:57;97892.34;;;9.22;100.00
11041;BME280;5573;49.592;8.662;2023-03-09T05:55:28;97874.66;;;9.23;100.00
11041;BME280;5573;49.592;8.662;2023-03-09T05:57:56;97894.38;;;9.18;100.00
11041;BME280;5573;49.592;8.662;2023-03-09T06:00:24;97902.28;;;9.12;100.00
11041;BME280;5573;49.592;8.662;2023-03-09T06:02:57;97911.09;;;9.23;100.00
11041;BME280;5573;49.592;8.662;2023-03-09T06:05:36;97915.06;;;9.22;100.00
11041;BME280;5573;49.592;8.662;2023-03-09T06:08:04;97925.09;;;9.09;100.00
11041;BME280;5573;49.592;8.662;2023-03-09T06:10:33;97921.09;;;9.13;100.00
11041;BME280;5573;49.592;8.662;2023-03-09T06:13:01;97915.97;;;8.92;100.00
11041;BME280;5573;49.592;8.662;2023-03-09T06:15:30;97919.50;;;8.89;100.00
11041;BME280;5573;49.592;8.662;2023-03-09T06:17:58;97922.66;;;8.87;100.00
11041;BME280;5573;49.592;8.662;2023-03-09T06:20:29;97922.75;;;8.84;100.00
11041;BME280;5573;49.592;8.662;2023-03-09T06:22:59;97923.69;;;8.73;100.00
11041;BME280;5573;49.592;8.662;2023-03-09T06:25:28;97927.16;;;8.78;100.00
11041;BME280;5573;49.592;8.662;2023-03-09T06:27:57;97936.25;;;8.71;100.00
11041;BME280;5573;49.592;8.662;2023-03-09T06:30:31;97933.50;;;8.71;100.00
11041;BME280;5573;49.592;8.662;2023-03-09T06:33:00;97944.41;;;8.74;100.00
11041;BME280;5573;49.592;8.662;2023-03-09T06:35:31;97948.22;;;8.81;100.00
11041;BME280;5573;49.592;8.662;2023-03-09T06:37:59;97949.97;;;8.71;100.00
11041;BME280;5573;49.592;8.662;2023-03-09T06:40:28;97956.91;;;8.79;100.00
11041;BME280;5573;49.592;8.662;2023-03-09T06:42:57;97958.22;;;8.67;100.00
11041;BME280;5573;49.592;8.662;2023-03-09T06:45:25;97967.50;;;8.77;100.00
11041;BME280;5573;49.592;8.662;2023-03-09T06:47:54;97964.22;;;8.86;100.00
11041;BME280;5573;49.592;8.662;2023-03-09T06:50:25;97978.34;;;8.84;100.00
11041;BME280;5573;49.592;8.662;2023-03-09T06:52:55;97978.91;;;8.99;100.00
11041;BME280;5573;49.592;8.662;2023-03-09T06:55:23;97991.38;;;9.04;100.00
11041;BME280;5573;49.592;8.662;2023-03-09T06:57:57;97991.91;;;8.95;100.00
11041;BME280;5573;49.592;8.662;2023-03-09T07:00:25;97998.47;;;9.01;100.00
11041;BME280;5573;49.592;8.662;2023-03-09T07:02:58;98010.16;;;9.05;100.00
11041;BME280;5573;49.592;8.662;2023-03-09T07:05:26;98008.59;;;9.04;100.00
11041;BME280;5573;49.592;8.662;2023-03-09T07:07:54;98023.38;;;9.10;100.00
11041;BME280;5573;49.592;8.662;2023-03-09T07:10:21;98015.47;;;9.16;100.00
11041;BME280;5573;49.592;8.662;2023-03-09T07:12:49;98031.03;;;9.23;100.00
11041;BME280;5573;49.592;8.662;2023-03-09T07:15:18;98031.03;;;9.23;100.00
11041;BME280;5573;49.592;8.662;2023-03-09T07:17:46;98041.38;;;9.15;100.00
11041;BME280;5573;49.592;8.662;2023-03-09T07:20:14;98034.56;;;9.23;100.00
11041;BME280;5573;49.592;8.662;2023-03-09T07:22:42;98029.22;;;9.12;100.00
11041;BME280;5573;49.592;8.662;2023-03-09T07:25:10;98044.72;;;9.26;100.00
11041;BME280;5573;49.592;8.662;2023-03-09T07:27:38;98045.13;;;9.25;100.00
11041;BME280;5573;49.592;8.662;2023-03-09T07:30:07;98054.06;;;9.29;100.00
11041;BME280;5573;49.592;8.662;2023-03-09T07:32:36;98057.09;;;9.11;100.00
11041;BME280;5573;49.592;8.662;2023-03-09T07:35:05;98058.31;;;9.33;100.00
11041;BME280;5573;49.592;8.662;2023-03-09T07:37:33;98070.72;;;9.42;100.00
11041;BME280;5573;49.592;8.662;2023-03-09T07:40:01;98037.66;;;9.25;100.00
11041;BME280;5573;49.592;8.662;2023-03-09T07:42:29;98079.50;;;9.56;100.00
11041;BME280;5573;49.592;8.662;2023-03-09T07:45:29;98086.44;;;9.65;100.00
11041;BME280;5573;49.592;8.662;2023-03-09T07:47:58;98082.97;;;9.61;100.00
11041;BME280;5573;49.592;8.662;2023-03-09T07:50:26;98092.88;;;9.54;100.00
11041;BME280;5573;49.592;8.662;2023-03-09T07:52:54;98052.00;;;9.36;100.00
11041;BME280;5573;49.592;8.662;2023-03-09T07:55:21;98093.88;;;9.68;100.00
11041;BME280;5573;49.592;8.662;2023-03-09T07:57:50;98104.03;;;9.67;100.00
11041;BME280;5573;49.592;8.662;2023-03-09T08:00:18;98105.78;;;9.57;100.00
11041;BME280;5573;49.592;8.662;2023-03-09T08:02:49;98109.44;;;9.74;100.00
11041;BME280;5573;49.592;8.662;2023-03-09T08:05:19;98111.19;;;9.61;100.00
11041;BME280;5573;49.592;8.662;2023-03-09T08:07:47;98115.75;;;9.71;100.00
11041;BME280;5573;49.592;8.662;2023-03-09T08:10:17;98120.69;;;9.56;100.00
11041;BME280;5573;49.592;8.662;2023-03-09T08:12:47;98130.50;;;9.57;100.00
11041;BME280;5573;49.592;8.662;2023-03-09T08:15:15;98127.25;;;9.63;100.00
11041;BME280;5573;49.592;8.662;2023-03-09T08:17:45;98119.75;;;9.67;100.00
11041;BME280;5573;49.592;8.662;2023-03-09T08:20:13;98136.22;;;9.67;100.00
11041;BME280;5573;49.592;8.662;2023-03-09T08:22:42;98127.31;;;9.59;100.00
11041;BME280;5573;49.592;8.662;2023-03-09T08:25:12;98131.63;;;9.60;100.00
11041;BME280;5573;49.592;8.662;2023-03-09T08:27:42;98131.63;;;9.60;100.00
11041;BME280;5573;49.592;8.662;2023-03-09T08:30:11;98141.84;;;9.60;100.00
11041;BME280;5573;49.592;8.662;2023-03-09T08:32:40;98142.03;;;9.45;100.00
11041;BME280;5573;49.592;8.662;2023-03-09T08:35:09;98137.94;;;9.57;100.00
11041;BME280;5573;49.592;8.662;2023-03-09T08:37:37;98147.41;;;9.52;100.00
11041;BME280;5573;49.592;8.662;2023-03-09T08:40:07;98138.94;;;9.43;100.00
11041;BME280;5573;49.592;8.662;2023-03-09T08:42:35;98149.03;;;9.50;100.00
11041;BME280;5573;49.592;8.662;2023-03-09T08:45:04;98089.38;;;9.00;100.00
11041;BME280;5573;49.592;8.662;2023-03-09T08:47:34;98166.38;;;9.43;100.00
11041;BME280;5573;49.592;8.662;2023-03-09T08:50:02;98165.25;;;9.41;100.00
11041;BME280;5573;49.592;8.662;2023-03-09T08:52:31;98176.94;;;9.45;100.00
11041;BME280;5573;49.592;8.662;2023-03-09T08:55:01;98153.72;;;9.22;100.00
11041;BME280;5573;49.592;8.662;2023-03-09T08:57:30;98180.31;;;9.56;100.00
11041;BME280;5573;49.592;8.662;2023-03-09T08:59:58;98188.00;;;9.38;100.00
11041;BME280;5573;49.592;8.662;2023-03-09T09:02:27;98190.59;;;9.48;100.00
11041;BME280;5573;49.592;8.662;2023-03-09T09:04:55;98187.78;;;9.55;100.00
11041;BME280;5573;49.592;8.662;2023-03-09T09:07:23;98189.78;;;9.51;100.00
11041;BME280;5573;49.592;8.662;2023-03-09T09:09:51;98204.31;;;9.48;100.00
11041;BME280;5573;49.592;8.662;2023-03-09T09:12:19;98191.41;;;9.49;100.00
11041;BME280;5573;49.592;8.662;2023-03-09T09:14:48;98211.28;;;9.56;100.00
11041;BME280;5573;49.592;8.662;2023-03-09T09:17:16;98204.31;;;9.48;100.00
11041;BME280;5573;49.592;8.662;2023-03-09T09:19:44;98205.78;;;9.56;100.00
11041;BME280;5573;49.592;8.662;2023-03-09T09:22:12;98204.84;;;9.67;100.00
11041;BME280;5573;49.592;8.662;2023-03-09T09:24:40;98224.63;;;9.54;100.00
11041;BME280;5573;49.592;8.662;2023-03-09T09:27:09;98217.84;;;9.63;100.00
11041;BME280;5573;49.592;8.662;2023-03-09T09:29:36;98226.47;;;9.65;100.00
11041;BME280;5573;49.592;8.662;2023-03-09T09:32:07;98225.28;;;9.66;100.00
11041;BME280;5573;49.592;8.662;2023-03-09T09:34:35;98239.50;;;9.84;100.00
11041;BME280;5573;49.592;8.662;2023-03-09T09:37:04;98242.84;;;9.72;100.00
11041;BME280;5573;49.592;8.662;2023-03-09T09:39:33;98240.09;;;9.72;100.00
11041;BME280;5573;49.592;8.662;2023-03-09T09:42:03;98237.97;;;9.83;100.00
11041;BME280;5573;49.592;8.662;2023-03-09T09:44:34;98245.44;;;9.83;100.00
11041;BME280;5573;49.592;8.662;2023-03-09T09:47:10;98253.97;;;9.88;100.00
11041;BME280;5573;49.592;8.662;2023-03-09T09:49:43;98256.00;;;9.84;100.00
11041;BME280;5573;49.592;8.662;2023-03-09T09:52:19;98253.59;;;9.86;100.00
11041;BME280;5573;49.592;8.662;2023-03-09T09:54:53;98264.31;;;10.08;100.00
11041;BME280;5573;49.592;8.662;2023-03-09T09:57:32;98266.97;;;10.11;100.00
11041;BME280;5573;49.592;8.662;2023-03-09T10:00:06;98275.88;;;10.19;100.00
11041;BME280;5573;49.592;8.662;2023-03-09T10:02:45;98274.28;;;10.22;100.00
11041;BME280;5573;49.592;8.662;2023-03-09T10:05:20;98281.13;;;10.37;100.00
11041;BME280;5573;49.592;8.662;2023-03-09T10:07:50;98288.00;;;10.49;100.00
11041;BME280;5573;49.592;8.662;2023-03-09T10:10:21;98289.69;;;10.43;100.00
11041;BME280;5573;49.592;8.662;2023-03-09T10:12:49;98288.13;;;10.42;100.00
11041;BME280;5573;49.592;8.662;2023-03-09T10:15:22;98302.69;;;10.38;100.00
11041;BME280;5573;49.592;8.662;2023-03-09T10:17:56;98303.84;;;10.41;100.00
11041;BME280;5573;49.592;8.662;2023-03-09T10:20:30;98257.97;;;10.11;100.00
11041;BME280;5573;49.592;8.662;2023-03-09T10:23:10;98295.84;;;10.50;100.00
11041;BME280;5573;49.592;8.662;2023-03-09T10:25:42;98308.34;;;10.55;100.00
11041;BME280;5573;49.592;8.662;2023-03-09T10:28:14;98307.38;;;10.65;100.00
11041;BME280;5573;49.592;8.662;2023-03-09T10:30:46;98309.50;;;10.54;100.00
11041;BME280;5573;49.592;8.662;2023-03-09T10:33:19;98323.53;;;10.63;100.00
11041;BME280;5573;49.592;8.662;2023-03-09T10:35:57;98304.91;;;10.71;100.00
11041;BME280;5573;49.592;8.662;2023-03-09T10:38:26;98322.31;;;10.64;100.00
11041;BME280;5573;49.592;8.662;2023-03-09T10:40:55;98322.22;;;10.71;100.00
11041;BME280;5573;49.592;8.662;2023-03-09T10:43:25;98322.22;;;10.71;100.00
11041;BME280;5573;49.592;8.662;2023-03-09T10:45:53;98327.28;;;10.73;100.00
11041;BME280;5573;49.592;8.662;2023-03-09T10:48:23;98326.56;;;10.92;100.00
11041;BME280;5573;49.592;8.662;2023-03-09T10:50:56;98330.69;;;10.81;100.00
11041;BME280;5573;49.592;8.662;2023-03-09T10:53:29;98325.59;;;10.79;100.00
11041;BME280;5573;49.592;8.662;2023-03-09T10:56:04;98342.22;;;10.95;100.00
11041;BME280;5573;49.592;8.662;2023-03-09T10:58:33;98333.09;;;10.78;100.00
11041;BME280;5573;49.592;8.662;2023-03-09T11:01:03;98336.66;;;10.99;100.00
11041;BME280;5573;49.592;8.662;2023-03-09T11:03:35;98341.88;;;10.93;100.00
11041;BME280;5573;49.592;8.662;2023-03-09T11:06:10;98344.16;;;11.18;100.00
11041;BME280;5573;49.592;8.662;2023-03-09T11:08:40;98340.84;;;11.07;100.00
11041;BME280;5573;49.592;8.662;2023-03-09T11:11:27;98353.59;;;10.97;100.00
11041;BME280;5573;49.592;8.662;2023-03-09T11:13:55;98341.75;;;11.01;100.00
11041;BME280;5573;49.592;8.662;2023-03-09T11:16:25;98350.19;;;11.33;100.00
11041;BME280;5573;49.592;8.662;2023-03-09T11:19:11;98347.31;;;11.41;100.00
11041;BME280;5573;49.592;8.662;2023-03-09T11:21:45;98343.97;;;11.69;100.00
11041;BME280;5573;49.592;8.662;2023-03-09T11:24:16;98335.44;;;12.20;100.00
11041;BME280;5573;49.592;8.662;2023-03-09T11:26:48;98358.00;;;12.15;100.00
11041;BME280;5573;49.592;8.662;2023-03-09T11:29:25;98372.38;;;11.86;100.00
11041;BME280;5573;49.592;8.662;2023-03-09T11:31:56;98368.69;;;12.13;100.00
11041;BME280;5573;49.592;8.662;2023-03-09T11:34:29;98368.97;;;12.35;100.00
11041;BME280;5573;49.592;8.662;2023-03-09T11:37:01;98348.59;;;12.65;100.00
11041;BME280;5573;49.592;8.662;2023-03-09T11:39:34;98354.53;;;12.80;100.00
11041;BME280;5573;49.592;8.662;2023-03-09T11:42:05;98345.56;;;12.92;100.00
11041;BME280;5573;49.592;8.662;2023-03-09T11:44:38;98346.66;;;12.95;100.00
11041;BME280;5573;49.592;8.662;2023-03-09T11:47:17;98365.19;;;13.11;100.00
11041;BME280;5573;49.592;8.662;2023-03-09T11:49:48;98360.91;;;12.93;100.00
11041;BME280;5573;49.592;8.662;2023-03-09T11:52:18;98350.56;;;12.65;100.00
11041;BME280;5573;49.592;8.662;2023-03-09T11:54:51;98354.19;;;12.78;100.00
11041;BME280;5573;49.592;8.662;2023-03-09T11:57:21;98359.09;;;12.87;100.00
11041;BME280;5573;49.592;8.662;2023-03-09T11:59:53;98352.53;;;12.64;100.00
11041;BME280;5573;49.592;8.662;2023-03-09T12:02:26;98363.38;;;12.88;100.00
11041;BME280;5573;49.592;8.662;2023-03-09T12:04:57;98368.63;;;13.15;100.00
11041;BME280;5573;49.592;8.662;2023-03-09T12:07:29;98347.97;;;13.36;100.00
11041;BME280;5573;49.592;8.662;2023-03-09T12:10:02;98354.88;;;13.44;100.00
11041;BME280;5573;49.592;8.662;2023-03-09T12:12:35;98325.09;;;13.65;100.00
11041;BME280;5573;49.592;8.662;2023-03-09T12:15:14;98333.09;;;13.88;100.00
11041;BME280;5573;49.592;8.662;2023-03-09T12:17:48;98348.38;;;14.18;100.00
11041;BME280;5573;49.592;8.662;2023-03-09T12:20:24;98355.03;;;14.21;100.00
11041;BME280;5573;49.592;8.662;2023-03-09T12:22:53;98345.84;;;14.37;100.00
11041;BME280;5573;49.592;8.662;2023-03-09T12:25:22;98346.28;;;14.10;100.00
11041;BME280;5573;49.592;8.662;2023-03-09T12:27:52;98327.34;;;13.82;100.00
11041;BME280;5573;49.592;8.662;2023-03-09T12:30:23;98339.25;;;13.67;100.00
11041;BME280;5573;49.592;8.662;2023-03-09T12:32:52;98338.84;;;13.22;100.00
11041;BME280;5573;49.592;8.662;2023-03-09T12:38:26;98326.22;;;13.38;100.00
11041;BME280;5573;49.592;8.662;2023-03-09T12:40:55;98338.16;;;13.64;100.00
11041;BME280;5573;49.592;8.662;2023-03-09T12:49:26;98310.75;;;13.95;100.00
11041;BME280;5573;49.592;8.662;2023-03-09T12:52:09;98333.38;;;13.65;100.00
11041;BME280;5573;49.592;8.662;2023-03-09T12:54:42;98320.03;;;13.34;100.00
11041;BME280;5573;49.592;8.662;2023-03-09T12:57:14;98322.72;;;13.21;100.00
11041;BME280;5573;49.592;8.662;2023-03-09T12:59:44;98321.69;;;13.31;100.00
11041;BME280;5573;49.592;8.662;2023-03-09T13:02:28;98308.47;;;13.39;100.00
11041;BME280;5573;49.592;8.662;2023-03-09T13:05:26;98307.28;;;13.66;100.00
11041;BME280;5573;49.592;8.662;2023-03-09T13:07:58;98305.34;;;13.37;100.00
11041;BME280;5573;49.592;8.662;2023-03-09T13:10:30;98318.50;;;13.16;100.00
11041;BME280;5573;49.592;8.662;2023-03-09T13:13:34;98318.59;;;13.13;100.00
11041;BME280;5573;49.592;8.662;2023-03-09T13:16:37;98325.91;;;12.90;100.00
11041;BME280;5573;49.592;8.662;2023-03-09T13:22:29;98315.28;;;12.89;100.00
11041;BME280;5573;49.592;8.662;2023-03-09T13:25:30;98324.94;;;12.80;100.00
11041;BME280;5573;49.592;8.662;2023-03-09T13:28:15;98328.19;;;13.08;100.00
11041;BME280;5573;49.592;8.662;2023-03-09T13:30:45;98324.56;;;13.11;100.00
11041;BME280;5573;49.592;8.662;2023-03-09T13:33:17;98328.22;;;13.37;100.00
11041;BME280;5573;49.592;8.662;2023-03-09T13:35:50;98331.56;;;13.45;100.00
11041;BME280;5573;49.592;8.662;2023-03-09T13:38:24;98329.00;;;13.80;100.00
11041;BME280;5573;49.592;8.662;2023-03-09T13:40:56;98329.28;;;13.56;100.00